createdAt,value
2022-12-18T00:01:15.124Z,19.58
2022-12-18T00:03:43.143Z,17.38
2022-12-18T00:06:09.949Z,20.02
2022-12-18T00:08:36.335Z,18.45
2022-12-18T00:11:04.189Z,20.10
2022-12-18T00:13:33.929Z,18.88
2022-12-18T00:16:02.688Z,18.98
2022-12-18T00:18:29.218Z,17.33
2022-12-18T00:20:59.086Z,18.83
2022-12-18T00:23:25.573Z,18.65
2022-12-18T00:25:52.070Z,18.10
2022-12-18T00:28:18.331Z,17.25
2022-12-18T00:30:45.929Z,18.90
2022-12-18T00:33:12.236Z,21.02
2022-12-18T00:35:38.645Z,16.55
2022-12-18T00:38:06.492Z,20.75
2022-12-18T00:40:32.871Z,14.00
2022-12-18T00:42:59.166Z,17.88
2022-12-18T00:45:27.509Z,16.50
2022-12-18T00:47:53.876Z,18.90
2022-12-18T00:50:20.170Z,17.02
2022-12-18T00:52:46.455Z,15.68
2022-12-18T00:55:14.425Z,17.70
2022-12-18T00:57:40.869Z,17.70
2022-12-18T01:00:08.254Z,15.65
2022-12-18T01:02:35.119Z,19.20
2022-12-18T01:05:03.392Z,18.33
2022-12-18T01:07:29.638Z,15.82
2022-12-18T01:09:55.943Z,18.20
2022-12-18T01:12:23.623Z,24.02
2022-12-18T01:14:50.577Z,19.25
2022-12-18T01:17:16.902Z,18.67
2022-12-18T01:19:43.154Z,16.25
2022-12-18T01:22:10.220Z,19.60
2022-12-18T01:24:37.570Z,18.10
2022-12-18T01:27:03.860Z,18.35
2022-12-18T01:29:31.850Z,20.48
2022-12-18T01:31:58.352Z,16.60
2022-12-18T01:34:24.805Z,19.73
2022-12-18T01:36:51.110Z,18.75
2022-12-18T01:39:17.455Z,18.02
2022-12-18T01:41:43.728Z,18.15
2022-12-18T01:44:25.041Z,18.95
2022-12-18T01:46:55.505Z,17.77
2022-12-18T01:49:21.894Z,16.45
2022-12-18T01:51:48.306Z,17.33
2022-12-18T01:54:18.003Z,19.52
2022-12-18T01:56:46.187Z,17.00
2022-12-18T01:59:13.781Z,20.52
2022-12-18T02:01:40.704Z,19.05
2022-12-18T02:04:30.564Z,17.70
2022-12-18T02:07:03.673Z,18.45
2022-12-18T02:09:32.788Z,19.70
2022-12-18T02:14:29.560Z,15.30
2022-12-18T02:17:00.610Z,19.88
2022-12-18T02:19:45.039Z,17.92
2022-12-18T02:22:26.065Z,14.20
2022-12-18T02:24:59.520Z,16.02
2022-12-18T02:27:28.788Z,15.95
2022-12-18T02:29:58.491Z,22.38
2022-12-18T02:32:28.499Z,16.75
2022-12-18T02:34:57.060Z,18.35
2022-12-18T02:37:26.268Z,17.70
2022-12-18T02:39:55.033Z,19.33
2022-12-18T02:42:22.427Z,18.75
2022-12-18T02:44:50.972Z,18.73
2022-12-18T02:47:24.722Z,20.30
2022-12-18T02:49:55.850Z,15.70
2022-12-18T02:52:26.266Z,17.80
2022-12-18T02:54:58.215Z,18.40
2022-12-18T02:57:29.159Z,24.10
2022-12-18T03:00:01.351Z,18.90
2022-12-18T03:02:30.617Z,22.10
2022-12-18T03:04:58.633Z,18.42
2022-12-18T03:07:28.801Z,21.10
2022-12-18T03:09:57.230Z,19.60
2022-12-18T03:12:25.650Z,15.98
2022-12-18T03:14:58.857Z,17.13
2022-12-18T03:17:28.799Z,18.15
2022-12-18T03:19:57.405Z,21.27
2022-12-18T03:22:24.554Z,17.33
2022-12-18T03:24:53.810Z,21.50
2022-12-18T03:27:21.726Z,18.98
2022-12-18T03:29:52.602Z,19.67
2022-12-18T03:32:26.814Z,17.75
2022-12-18T03:34:56.096Z,16.33
2022-12-18T03:37:23.242Z,16.02
2022-12-18T03:42:25.669Z,21.50
2022-12-18T03:45:01.131Z,19.67
2022-12-18T03:47:29.080Z,19.00
2022-12-18T03:50:06.061Z,17.85
2022-12-18T03:52:37.312Z,17.52
2022-12-18T03:55:05.875Z,16.98
2022-12-18T03:57:33.774Z,18.15
2022-12-18T04:00:02.776Z,17.67
2022-12-18T04:02:42.224Z,20.27
2022-12-18T04:05:11.356Z,17.83
2022-12-18T04:07:40.856Z,16.63
2022-12-18T04:10:10.414Z,16.08
2022-12-18T04:12:37.986Z,15.02
2022-12-18T04:15:05.000Z,19.50
2022-12-18T04:17:31.702Z,16.60
2022-12-18T04:19:58.246Z,17.30
2022-12-18T04:22:26.406Z,19.63
2022-12-18T04:24:58.716Z,17.98
2022-12-18T04:27:31.697Z,21.92
2022-12-18T04:29:59.512Z,20.45
2022-12-18T04:32:25.832Z,18.63
2022-12-18T04:34:52.403Z,21.45
2022-12-18T04:37:18.784Z,20.40
2022-12-18T04:39:46.540Z,18.38
2022-12-18T04:42:20.427Z,18.67
2022-12-18T04:44:46.753Z,22.58
2022-12-18T04:47:13.095Z,19.13
2022-12-18T04:49:39.415Z,24.20
2022-12-18T04:52:05.703Z,18.15
2022-12-18T04:54:32.236Z,22.08
2022-12-18T04:56:59.981Z,19.27
2022-12-18T04:59:26.629Z,26.77
2022-12-18T05:01:53.026Z,19.77
2022-12-18T05:04:20.480Z,19.50
2022-12-18T05:06:46.910Z,19.92
2022-12-18T05:09:13.651Z,15.70
2022-12-18T05:11:39.951Z,22.08
2022-12-18T05:14:07.652Z,20.30
2022-12-18T05:16:34.000Z,20.98
2022-12-18T05:19:00.403Z,20.30
2022-12-18T05:21:26.764Z,18.45
2022-12-18T05:23:53.404Z,19.83
2022-12-18T05:26:20.044Z,15.52
2022-12-18T05:28:47.136Z,18.15
2022-12-18T05:31:15.242Z,21.90
2022-12-18T05:33:41.924Z,21.63
2022-12-18T05:36:09.208Z,20.95
2022-12-18T05:38:36.380Z,16.85
2022-12-18T05:41:03.025Z,15.05
2022-12-18T05:43:30.348Z,26.00
2022-12-18T05:45:56.960Z,17.83
2022-12-18T05:48:24.892Z,22.02
2022-12-18T05:50:51.216Z,17.40
2022-12-18T05:53:21.138Z,21.13
2022-12-18T05:55:48.035Z,21.08
2022-12-18T05:58:14.646Z,20.83
2022-12-18T06:00:44.073Z,21.45
2022-12-18T06:03:11.759Z,24.80
2022-12-18T06:05:40.661Z,18.95
2022-12-18T06:08:07.204Z,20.10
2022-12-18T06:10:33.510Z,25.30
2022-12-18T06:12:59.857Z,23.85
2022-12-18T06:15:29.009Z,23.08
2022-12-18T06:17:55.306Z,18.38
2022-12-18T06:20:21.687Z,20.90
2022-12-18T06:22:49.369Z,23.52
2022-12-18T06:25:16.178Z,20.87
2022-12-18T06:27:42.529Z,27.17
2022-12-18T06:30:10.163Z,24.63
2022-12-18T06:32:36.600Z,24.13
2022-12-18T06:35:03.066Z,24.83
2022-12-18T06:37:29.358Z,20.35
2022-12-18T06:39:57.043Z,23.85
2022-12-18T06:42:23.575Z,21.83
2022-12-18T06:44:50.207Z,24.50
2022-12-18T06:47:16.542Z,26.45
2022-12-18T06:49:43.734Z,20.27
2022-12-18T06:52:10.082Z,22.52
2022-12-18T06:54:36.381Z,24.23
2022-12-18T06:57:04.109Z,24.75
2022-12-18T06:59:30.434Z,22.13
2022-12-18T07:01:56.822Z,23.58
2022-12-18T07:04:23.290Z,24.52
2022-12-18T07:06:49.620Z,23.90
2022-12-18T07:09:15.940Z,19.17
2022-12-18T07:11:42.262Z,17.50
2022-12-18T07:14:10.032Z,22.60
2022-12-18T07:16:36.446Z,25.20
2022-12-18T07:19:03.109Z,28.13
2022-12-18T07:21:29.576Z,23.55
2022-12-18T07:23:55.938Z,27.27
2022-12-18T07:26:22.642Z,23.48
2022-12-18T07:28:49.259Z,20.88
2022-12-18T07:31:18.248Z,19.88
2022-12-18T07:33:44.639Z,23.83
2022-12-18T07:36:11.387Z,21.92
2022-12-18T07:38:38.211Z,18.63
2022-12-18T07:41:06.725Z,20.08
2022-12-18T07:43:33.318Z,17.75
2022-12-18T07:45:59.652Z,18.60
2022-12-18T07:48:28.223Z,19.65
2022-12-18T07:50:54.524Z,21.45
2022-12-18T07:53:20.855Z,26.35
2022-12-18T07:56:25.083Z,21.85
2022-12-18T07:58:37.572Z,16.17
2022-12-18T08:03:31.444Z,21.52
2022-12-18T08:05:59.451Z,22.02
2022-12-18T08:08:25.833Z,18.93
2022-12-18T08:10:52.216Z,23.92
2022-12-18T08:13:18.492Z,24.90
2022-12-18T08:15:45.052Z,21.30
2022-12-18T08:18:14.304Z,18.20
2022-12-18T08:20:42.205Z,23.63
2022-12-18T08:23:08.636Z,19.83
2022-12-18T08:25:35.242Z,18.80
2022-12-18T08:28:01.676Z,21.23
2022-12-18T08:30:28.085Z,31.05
2022-12-18T08:32:54.524Z,20.23
2022-12-18T08:35:20.833Z,17.85
2022-12-18T08:37:48.573Z,20.88
2022-12-18T08:40:15.046Z,22.17
2022-12-18T08:42:42.135Z,20.77
2022-12-18T08:45:09.129Z,20.75
2022-12-18T08:47:35.528Z,21.67
2022-12-18T08:50:01.828Z,22.88
2022-12-18T08:52:28.112Z,24.15
2022-12-18T08:54:55.784Z,18.83
2022-12-18T08:57:22.630Z,20.50
2022-12-18T08:59:48.932Z,21.55
2022-12-18T09:02:15.435Z,18.10
2022-12-18T09:04:41.859Z,19.52
2022-12-18T09:07:08.228Z,21.15
2022-12-18T09:09:34.565Z,21.10
2022-12-18T09:12:02.213Z,21.02
2022-12-18T09:14:28.609Z,19.20
2022-12-18T09:16:55.039Z,19.17
2022-12-18T09:19:21.430Z,24.00
2022-12-18T09:21:48.595Z,17.80
2022-12-18T09:24:15.592Z,19.45
2022-12-18T09:26:41.913Z,21.13
2022-12-18T09:29:11.323Z,17.15
2022-12-18T09:31:38.716Z,22.42
2022-12-18T09:34:05.055Z,16.27
2022-12-18T09:36:31.657Z,20.55
2022-12-18T09:39:02.551Z,18.02
2022-12-18T09:41:40.052Z,19.83
2022-12-18T09:44:12.037Z,20.42
2022-12-18T09:46:43.735Z,17.67
2022-12-18T09:49:13.505Z,18.75
2022-12-18T09:51:42.524Z,18.90
2022-12-18T09:56:36.254Z,23.08
2022-12-18T09:59:03.745Z,23.85
2022-12-18T10:01:41.368Z,19.25
2022-12-18T10:04:11.960Z,20.92
2022-12-18T10:06:42.034Z,16.70
2022-12-18T10:09:12.207Z,21.08
2022-12-18T10:11:44.090Z,19.65
2022-12-18T10:14:15.702Z,18.75
2022-12-18T10:16:45.617Z,21.20
2022-12-18T10:19:18.846Z,19.48
2022-12-18T10:21:50.052Z,17.65
2022-12-18T10:24:21.920Z,17.58
2022-12-18T10:26:48.291Z,20.42
2022-12-18T10:29:15.539Z,21.75
2022-12-18T10:31:42.080Z,15.60
2022-12-18T10:34:10.504Z,20.75
2022-12-18T10:36:38.180Z,19.08
2022-12-18T10:39:15.096Z,19.95
2022-12-18T10:41:41.423Z,18.60
2022-12-18T10:44:17.155Z,20.95
2022-12-18T10:46:43.844Z,20.88
2022-12-18T10:49:19.799Z,18.67
2022-12-18T10:51:47.548Z,19.95
2022-12-18T10:54:15.644Z,14.65
2022-12-18T10:56:42.072Z,17.90
2022-12-18T10:59:11.471Z,15.52
2022-12-18T11:01:48.594Z,19.88
2022-12-18T11:04:17.407Z,17.02
2022-12-18T11:06:55.208Z,19.63
2022-12-18T11:09:22.541Z,17.88
2022-12-18T11:11:49.367Z,16.73
2022-12-18T11:14:19.310Z,15.75
2022-12-18T11:17:03.057Z,18.10
2022-12-18T11:19:32.536Z,17.88
2022-12-18T11:24:28.500Z,18.35
2022-12-18T11:26:59.506Z,15.55
2022-12-18T11:29:30.260Z,18.65
2022-12-18T11:32:13.564Z,22.40
2022-12-18T11:34:40.425Z,20.70
2022-12-18T11:37:09.545Z,16.65
2022-12-18T11:39:38.489Z,20.40
2022-12-18T11:42:06.363Z,21.95
2022-12-18T11:44:36.356Z,23.00
2022-12-18T11:47:04.676Z,22.23
2022-12-18T11:49:33.658Z,18.45
2022-12-18T11:52:01.439Z,24.17
2022-12-18T11:54:27.784Z,19.52
2022-12-18T11:56:56.973Z,23.83
2022-12-18T11:59:30.423Z,18.65
2022-12-18T12:02:00.471Z,21.48
2022-12-18T12:04:44.533Z,22.85
2022-12-18T12:07:18.064Z,22.52
2022-12-18T12:09:48.252Z,21.05
2022-12-18T12:12:25.565Z,20.58
2022-12-18T12:14:56.469Z,22.13
2022-12-18T12:17:28.808Z,22.92
2022-12-18T12:19:59.685Z,25.02
2022-12-18T12:22:31.953Z,20.17
2022-12-18T12:25:03.549Z,19.30
2022-12-18T12:27:37.203Z,20.33
2022-12-18T12:30:05.849Z,20.42
2022-12-18T12:32:44.953Z,17.98
2022-12-18T12:35:19.009Z,21.50
2022-12-18T12:37:49.422Z,21.48
2022-12-18T12:40:49.156Z,22.25
2022-12-18T12:43:11.213Z,17.08
2022-12-18T12:45:40.010Z,21.70
2022-12-18T12:50:34.510Z,18.50
2022-12-18T12:53:02.270Z,23.88
2022-12-18T12:55:29.525Z,23.13
2022-12-18T12:57:58.697Z,25.90
2022-12-18T13:00:28.713Z,21.42
2022-12-18T13:02:59.993Z,23.02
2022-12-18T13:05:29.145Z,19.58
2022-12-18T13:08:00.097Z,15.18
2022-12-18T13:10:33.885Z,24.88
2022-12-18T13:13:01.895Z,23.35
2022-12-18T13:15:38.099Z,20.83
2022-12-18T13:18:16.722Z,20.80
2022-12-18T13:20:46.622Z,23.13
2022-12-18T13:23:27.961Z,21.20
2022-12-18T13:25:54.796Z,25.08
2022-12-18T13:28:21.847Z,23.42
2022-12-18T13:30:59.084Z,25.20
2022-12-18T13:33:56.324Z,22.88
2022-12-18T13:36:30.603Z,25.42
2022-12-18T13:39:10.711Z,22.92
2022-12-18T13:41:37.576Z,25.15
2022-12-18T13:44:11.785Z,20.95
2022-12-18T13:46:45.015Z,24.23
2022-12-18T13:49:21.659Z,24.73
2022-12-18T13:51:49.054Z,24.90
2022-12-18T13:54:19.749Z,22.63
2022-12-18T13:56:47.334Z,21.33
2022-12-18T13:59:16.028Z,21.27
2022-12-18T14:01:45.180Z,22.90
2022-12-18T14:04:13.153Z,20.88
2022-12-18T14:06:40.124Z,22.50
2022-12-18T14:09:06.429Z,24.85
2022-12-18T14:11:35.971Z,24.75
2022-12-18T14:14:02.429Z,24.55
2022-12-18T14:16:29.272Z,24.88
2022-12-18T14:19:02.679Z,22.20
2022-12-18T14:21:45.948Z,22.60
2022-12-18T14:24:14.379Z,23.73
2022-12-18T14:26:41.337Z,24.30
2022-12-18T14:29:24.260Z,28.88
2022-12-18T14:32:16.938Z,25.08
2022-12-18T14:34:45.996Z,27.02
2022-12-18T14:37:13.400Z,23.30
2022-12-18T14:39:39.833Z,25.05
2022-12-18T14:42:06.247Z,26.38
2022-12-18T14:44:44.127Z,23.10
2022-12-18T14:47:18.193Z,23.83
2022-12-18T14:49:45.961Z,28.75
2022-12-18T14:52:21.878Z,23.10
2022-12-18T14:54:48.499Z,26.58
2022-12-18T14:57:23.391Z,27.25
2022-12-18T14:59:49.780Z,27.13
2022-12-18T15:02:20.731Z,24.65
2022-12-18T15:04:48.820Z,26.17
2022-12-18T15:07:16.422Z,32.78
2022-12-18T15:10:00.842Z,26.30
2022-12-18T15:12:33.554Z,28.00
2022-12-18T15:14:59.868Z,24.30
2022-12-18T15:17:26.891Z,27.00
2022-12-18T15:20:01.092Z,32.03
2022-12-18T15:22:28.277Z,24.17
2022-12-18T15:24:55.170Z,27.58
2022-12-18T15:27:22.294Z,30.77
2022-12-18T15:30:00.393Z,27.88
2022-12-18T15:32:26.773Z,28.00
2022-12-18T15:35:03.640Z,26.05
2022-12-18T15:37:29.927Z,28.02
2022-12-18T15:39:56.578Z,31.38
2022-12-18T15:42:22.932Z,30.77
2022-12-18T15:44:49.292Z,26.10
2022-12-18T15:47:15.649Z,26.75
2022-12-18T15:49:42.169Z,32.78
2022-12-18T15:52:12.160Z,31.20
2022-12-18T15:54:38.488Z,30.30
2022-12-18T15:57:04.788Z,25.60
2022-12-18T15:59:31.096Z,32.75
2022-12-18T16:01:57.499Z,30.73
2022-12-18T16:04:24.316Z,28.42
2022-12-18T16:07:14.023Z,33.08
2022-12-18T16:09:38.799Z,27.75
2022-12-18T16:12:05.328Z,25.58
2022-12-18T16:14:32.180Z,27.23
2022-12-18T16:16:59.868Z,28.95
2022-12-18T16:19:26.950Z,27.80
2022-12-18T16:21:54.808Z,33.42
2022-12-18T16:24:22.138Z,30.25
2022-12-18T16:26:50.038Z,31.27
2022-12-18T16:29:16.642Z,30.55
2022-12-18T16:31:43.156Z,31.15
2022-12-18T16:34:29.721Z,33.15
2022-12-18T16:37:00.279Z,28.83
2022-12-18T16:39:31.079Z,26.75
2022-12-18T16:41:58.720Z,22.33
2022-12-18T16:44:25.754Z,27.65
2022-12-18T16:46:52.067Z,29.80
2022-12-18T16:49:19.227Z,31.08
2022-12-18T16:51:46.391Z,35.03
2022-12-18T16:54:18.654Z,26.63
2022-12-18T16:56:45.447Z,26.67
2022-12-18T16:59:13.048Z,29.45
2022-12-18T17:01:39.433Z,21.48
2022-12-18T17:04:06.423Z,26.20
2022-12-18T17:06:33.797Z,28.33
2022-12-18T17:09:01.071Z,30.48
2022-12-18T17:11:28.251Z,32.65
2022-12-18T17:13:55.686Z,30.03
2022-12-18T17:16:25.897Z,31.95
2022-12-18T17:18:52.791Z,28.85
2022-12-18T17:21:19.409Z,37.75
2022-12-18T17:23:45.804Z,32.92
2022-12-18T17:26:12.776Z,31.63
2022-12-18T17:28:40.030Z,31.27
2022-12-18T17:31:10.751Z,30.20
2022-12-18T17:33:38.886Z,36.08
2022-12-18T17:36:06.628Z,30.25
2022-12-18T17:38:32.939Z,27.58
2022-12-18T17:41:00.357Z,38.30
2022-12-18T17:43:27.007Z,31.75
2022-12-18T17:45:53.280Z,30.95
2022-12-18T17:48:19.536Z,32.47
2022-12-18T17:50:47.425Z,26.80
2022-12-18T17:53:13.799Z,39.60
2022-12-18T17:55:40.077Z,32.25
2022-12-18T17:58:06.490Z,28.35
2022-12-18T18:00:33.020Z,33.35
2022-12-18T18:02:59.592Z,39.80
2022-12-18T18:05:26.220Z,33.97
2022-12-18T18:07:53.863Z,33.60
2022-12-18T18:10:20.382Z,34.35
2022-12-18T18:12:46.699Z,29.63
2022-12-18T18:15:13.181Z,33.45
2022-12-18T18:17:40.000Z,32.70
2022-12-18T18:20:06.654Z,31.88
2022-12-18T18:22:33.149Z,29.77
2022-12-18T18:25:01.634Z,35.88
2022-12-18T18:27:28.278Z,33.60
2022-12-18T18:29:54.625Z,32.28
2022-12-18T18:32:20.930Z,30.25
2022-12-18T18:34:47.333Z,32.03
2022-12-18T18:37:13.776Z,28.73
2022-12-18T18:39:40.301Z,33.42
2022-12-18T18:42:08.186Z,33.13
2022-12-18T18:44:34.574Z,37.05
2022-12-18T18:47:00.955Z,40.03
2022-12-18T18:49:29.066Z,31.10
2022-12-18T18:51:56.255Z,41.47
2022-12-18T18:54:22.563Z,32.55
2022-12-18T18:59:41.603Z,35.47
2022-12-18T19:02:09.025Z,28.20
2022-12-18T19:04:35.469Z,33.53
2022-12-18T19:07:04.065Z,24.83
2022-12-18T19:09:30.331Z,36.03
2022-12-18T19:11:56.843Z,40.40
2022-12-18T19:14:23.300Z,27.05
2022-12-18T19:16:51.026Z,35.25
2022-12-18T19:19:17.502Z,33.95
2022-12-18T19:21:43.873Z,38.05
2022-12-18T19:24:10.319Z,36.47
2022-12-18T19:26:36.614Z,28.98
2022-12-18T19:29:03.172Z,32.15
2022-12-18T19:31:35.179Z,31.55
2022-12-18T19:34:04.372Z,27.38
2022-12-18T19:36:31.063Z,37.63
2022-12-18T19:38:58.358Z,32.90
2022-12-18T19:41:25.558Z,26.55
2022-12-18T19:43:52.627Z,34.63
2022-12-18T19:46:19.592Z,30.52
2022-12-18T19:48:46.503Z,37.50
2022-12-18T19:51:15.251Z,37.03
2022-12-18T19:53:41.514Z,33.70
2022-12-18T19:56:10.725Z,31.90
2022-12-18T19:58:37.183Z,32.90
2022-12-18T20:01:03.644Z,30.88
2022-12-18T20:03:35.315Z,31.75
2022-12-18T20:06:09.079Z,29.88
2022-12-18T20:08:36.770Z,33.30
2022-12-18T20:11:03.057Z,37.88
2022-12-18T20:13:29.742Z,30.13
2022-12-18T20:15:56.021Z,29.52
2022-12-18T20:18:22.357Z,31.17
2022-12-18T20:20:48.853Z,36.85
2022-12-18T20:23:16.969Z,29.37
2022-12-18T20:25:44.706Z,25.02
2022-12-18T20:28:11.126Z,31.75
2022-12-18T20:30:37.443Z,31.45
2022-12-18T20:33:03.879Z,29.77
2022-12-18T20:35:31.502Z,36.15
2022-12-18T20:37:59.022Z,31.52
2022-12-18T20:40:27.267Z,28.25
2022-12-18T20:42:54.950Z,29.75
2022-12-18T20:45:21.249Z,37.50
2022-12-18T20:47:47.521Z,34.00
2022-12-18T20:50:13.893Z,35.30
2022-12-18T20:52:40.197Z,31.65
2022-12-18T20:55:06.795Z,30.25
2022-12-18T20:57:33.086Z,33.50
2022-12-18T21:00:00.790Z,32.42
2022-12-18T21:02:27.382Z,29.27
2022-12-18T21:04:53.748Z,33.72
2022-12-18T21:07:20.076Z,35.25
2022-12-18T21:09:46.336Z,27.60
2022-12-18T21:12:14.329Z,29.52
2022-12-18T21:14:41.267Z,30.02
2022-12-18T21:17:08.971Z,33.33
2022-12-18T21:19:35.420Z,31.60
2022-12-18T21:22:02.058Z,29.98
2022-12-18T21:24:28.861Z,31.13
2022-12-18T21:27:00.648Z,31.90
2022-12-18T21:29:27.141Z,41.05
2022-12-18T21:31:53.657Z,34.92
2022-12-18T21:34:23.359Z,30.17
2022-12-18T21:36:49.708Z,34.25
2022-12-18T21:39:16.689Z,34.67
2022-12-18T21:41:43.521Z,30.65
2022-12-18T21:44:11.012Z,31.75
2022-12-18T21:46:38.388Z,32.90
2022-12-18T21:49:05.409Z,28.63
2022-12-18T21:51:33.413Z,36.90
2022-12-18T21:53:59.883Z,36.20
2022-12-18T21:56:42.086Z,35.13
2022-12-18T21:59:08.374Z,34.08
2022-12-18T22:01:38.003Z,35.15
2022-12-18T22:04:04.503Z,34.70
2022-12-18T22:06:30.866Z,33.28
2022-12-18T22:08:58.501Z,35.50
2022-12-18T22:11:24.784Z,38.70
2022-12-18T22:13:51.557Z,37.58
2022-12-18T22:16:17.888Z,33.25
2022-12-18T22:18:44.232Z,40.90
2022-12-18T22:21:25.541Z,33.28
2022-12-18T22:23:55.765Z,35.35
2022-12-18T22:26:24.109Z,32.97
2022-12-18T22:28:50.592Z,48.15
2022-12-18T22:31:16.914Z,39.78
2022-12-18T22:33:43.217Z,33.85
2022-12-18T22:36:11.039Z,36.92
2022-12-18T22:38:37.319Z,37.50
2022-12-18T22:41:03.610Z,36.20
2022-12-18T22:43:31.231Z,37.67
2022-12-18T22:45:57.596Z,29.20
2022-12-18T22:48:24.080Z,36.33
2022-12-18T22:50:50.346Z,38.20
2022-12-18T22:53:19.697Z,37.25
2022-12-18T22:55:46.057Z,34.58
2022-12-18T22:58:12.378Z,38.90
2022-12-18T23:00:40.027Z,37.17
2022-12-18T23:03:07.267Z,36.25
2022-12-18T23:05:33.831Z,35.50
2022-12-18T23:08:00.450Z,37.83
2022-12-18T23:10:27.145Z,36.90
2022-12-18T23:12:53.465Z,30.48
2022-12-18T23:15:27.707Z,36.00
2022-12-18T23:17:56.111Z,39.10
2022-12-18T23:20:22.491Z,37.40
2022-12-18T23:22:48.747Z,39.95
2022-12-18T23:25:15.052Z,37.58
2022-12-18T23:27:41.354Z,36.47
2022-12-18T23:30:08.137Z,40.13
2022-12-18T23:32:37.511Z,36.30
2022-12-18T23:35:05.772Z,33.00
2022-12-18T23:37:58.175Z,38.38
2022-12-18T23:40:20.101Z,38.88
2022-12-18T23:42:46.364Z,37.45
2022-12-18T23:45:18.107Z,37.45
2022-12-18T23:47:44.774Z,30.00
2022-12-18T23:50:14.829Z,35.78
2022-12-18T23:52:41.557Z,38.47
2022-12-18T23:55:08.303Z,37.97
2022-12-18T23:57:34.559Z,33.28
